Time;durP1;ratioP1;P1;durP2;ratioP2;P2;SDS_P1;SDS_P2;PMS_P1;PMS_P2;Temp;Humidity;BMP_temperature;BMP_pressure;BME280_temperature;BME280_humidity;BME280_pressure;Samples;Min_cycle;Max_cycle;Signal;HPM_P1;HPM_P2
2022/09/25 00:00:25;;;;;;;;;;;;;;;11.30;55.90;101347.38;5001580;28;19924;-87
2022/09/25 00:02:50;;;;;;;;;;;;;;;11.19;55.97;101343.06;5000274;28;19922;-84
2022/09/25 00:05:16;;;;;;;;;;;;;;;11.27;55.78;101341.47;4983212;28;20012;-85
2022/09/25 00:07:41;;;;;;;;;;;;;;;11.30;55.64;101341.16;4980568;28;19949;-85
2022/09/25 00:10:07;;;;;;;;;;;;;;;11.23;55.70;101346.28;5002014;28;19956;-86
2022/09/25 00:12:32;;;;;;;;;;;;;;;11.21;55.63;101345.59;4993031;28;19964;-85
2022/09/25 00:14:57;;;;;;;;;;;;;;;11.20;55.86;101347.44;5011165;28;20347;-86
2022/09/25 00:17:23;;;;;;;;;;;;;;;11.30;55.86;101341.16;5009323;28;19921;-86
2022/09/25 00:19:51;;;;;;;;;;;;;;;11.27;56.25;101336.94;4992363;28;19917;-85
2022/09/25 00:22:20;;;;;;;;;;;;;;;11.32;56.33;101331.09;5019900;28;19921;-83
2022/09/25 00:24:45;;;;;;;;;;;;;;;11.39;56.35;101326.81;4996255;28;19930;-84
2022/09/25 00:27:12;;;;;;;;;;;;;;;11.36;56.70;101316.34;5001599;28;20351;-84
2022/09/25 00:29:38;;;;;;;;;;;;;;;11.36;56.57;101327.13;4979101;28;20023;-85
2022/09/25 00:32:04;;;;;;;;;;;;;;;11.45;56.50;101323.53;5015094;28;19929;-84
2022/09/25 00:34:29;;;;;;;;;;;;;;;11.45;56.54;101323.53;5010596;28;20305;-85
2022/09/25 00:36:54;;;;;;;;;;;;;;;11.48;55.79;101322.38;5010362;28;20298;-85
2022/09/25 00:39:21;;;;;;;;;;;;;;;11.44;55.08;101321.81;4993566;28;19932;-89
2022/09/25 00:41:46;;;;;;;;;;;;;;;11.44;54.96;101323.66;5005799;28;20011;-86
2022/09/25 00:44:30;;;;;;;;;;;;;;;11.51;54.88;101322.06;5010359;28;20044;-87
2022/09/25 00:46:55;;;;;;;;;;;;;;;11.51;54.78;101306.75;4995852;28;19963;-87
2022/09/25 00:49:23;;;;;;;;;;;;;;;11.52;54.85;101296.81;4981323;28;19917;-85
2022/09/25 00:51:56;;;;;;;;;;;;;;;11.56;55.02;101288.28;5020411;28;20389;-85
2022/09/25 00:54:26;;;;;;;;;;;;;;;11.52;55.58;101286.91;4998295;28;20000;-86
2022/09/25 00:56:52;;;;;;;;;;;;;;;11.58;55.62;101280.91;4998418;28;19955;-86
2022/09/25 00:59:21;;;;;;;;;;;;;;;11.58;55.76;101286.28;5012474;28;19975;-85
2022/09/25 01:01:48;;;;;;;;;;;;;;;11.54;56.22;101279.53;5014994;28;19921;-85
2022/09/25 01:04:13;;;;;;;;;;;;;;;11.49;57.25;101281.81;4994220;28;19914;-87
2022/09/25 01:06:39;;;;;;;;;;;;;;;11.35;57.69;101272.41;4998672;28;21255;-85
2022/09/25 01:09:04;;;;;;;;;;;;;;;11.43;57.87;101281.59;5012596;28;19917;-87
2022/09/25 01:11:31;;;;;;;;;;;;;;;11.28;58.38;101273.16;5003606;28;20004;-87
2022/09/25 01:13:56;;;;;;;;;;;;;;;11.23;58.37;101270.09;5016525;28;20369;-86
2022/09/25 01:16:36;;;;;;;;;;;;;;;11.21;58.68;101281.00;5014660;28;19924;-86
2022/09/25 01:19:15;;;;;;;;;;;;;;;11.20;58.66;101280.16;5003675;28;19957;-86
2022/09/25 01:21:53;;;;;;;;;;;;;;;11.20;58.88;101282.84;4995966;28;20021;-86
2022/09/25 01:24:37;;;;;;;;;;;;;;;11.25;58.57;101284.25;4985506;28;20359;-87
2022/09/25 01:27:09;;;;;;;;;;;;;;;11.21;58.61;101275.59;5014025;28;20440;-84
2022/09/25 01:29:36;;;;;;;;;;;;;;;11.17;58.80;101275.06;5010646;28;20250;-86
2022/09/25 01:32:21;;;;;;;;;;;;;;;11.09;58.90;101277.66;5000312;28;20008;-86
2022/09/25 01:34:56;;;;;;;;;;;;;;;10.97;59.59;101276.16;5015413;28;20800;-87
2022/09/25 01:37:30;;;;;;;;;;;;;;;11.03;59.55;101270.19;4983113;28;19964;-87
2022/09/25 01:40:17;;;;;;;;;;;;;;;11.06;59.49;101269.03;4967253;28;19940;-85
2022/09/25 01:42:48;;;;;;;;;;;;;;;10.98;59.59;101261.72;5016473;28;19917;-85
2022/09/25 01:45:18;;;;;;;;;;;;;;;11.05;59.40;101273.59;4992919;28;20034;-87
2022/09/25 01:47:44;;;;;;;;;;;;;;;10.88;59.95;101274.34;5018902;28;19917;-86
2022/09/25 01:50:15;;;;;;;;;;;;;;;10.86;60.23;101276.34;5011739;28;19932;-86
2022/09/25 01:52:42;;;;;;;;;;;;;;;10.85;60.43;101280.03;4968957;28;20008;-84
2022/09/25 01:55:20;;;;;;;;;;;;;;;10.77;60.97;101270.88;4993180;28;19918;-86
2022/09/25 01:57:48;;;;;;;;;;;;;;;10.70;61.33;101269.75;4996399;28;20292;-84
2022/09/25 02:00:16;;;;;;;;;;;;;;;10.75;61.53;101278.22;4992330;28;19921;-86
2022/09/25 02:03:01;;;;;;;;;;;;;;;10.75;61.63;101272.84;4989991;28;19921;-85
2022/09/25 02:05:34;;;;;;;;;;;;;;;10.81;61.55;101265.19;4988070;28;19917;-86
2022/09/25 02:08:00;;;;;;;;;;;;;;;10.86;61.33;101262.91;4991824;28;19909;-83
2022/09/25 02:10:27;;;;;;;;;;;;;;;10.85;61.63;101255.84;4992457;28;19987;-84
2022/09/25 02:12:56;;;;;;;;;;;;;;;10.75;61.92;101254.03;5011749;28;20385;-86
2022/09/25 02:15:31;;;;;;;;;;;;;;;10.82;61.76;101256.13;5013636;28;19977;-86
2022/09/25 02:20:45;;;;;;;;;;;;;;;10.81;61.92;101265.19;5015579;28;19968;-85
2022/09/25 02:23:18;;;;;;;;;;;;;;;10.78;61.99;101264.47;4997385;28;19940;-84
2022/09/25 02:25:46;;;;;;;;;;;;;;;10.81;61.86;101260.66;5007987;28;19917;-85
2022/09/25 02:28:12;;;;;;;;;;;;;;;10.71;62.17;101257.16;4996344;28;19921;-84
2022/09/25 02:30:37;;;;;;;;;;;;;;;10.57;62.12;101236.97;5018489;28;20377;-86
2022/09/25 02:33:04;;;;;;;;;;;;;;;10.72;62.42;101259.72;5022435;28;19920;-87
2022/09/25 02:35:30;;;;;;;;;;;;;;;10.76;62.36;101261.09;4996216;28;19975;-84
2022/09/25 02:37:55;;;;;;;;;;;;;;;10.82;62.22;101266.91;5015600;28;19918;-84
2022/09/25 02:40:28;;;;;;;;;;;;;;;10.77;62.27;101262.81;5007343;28;19967;-86
2022/09/25 02:42:59;;;;;;;;;;;;;;;10.76;61.81;101266.47;4995673;28;20598;-86
2022/09/25 02:45:27;;;;;;;;;;;;;;;10.76;61.15;101271.84;5016768;28;19961;-87
2022/09/25 02:48:02;;;;;;;;;;;;;;;10.71;61.14;101268.75;5013748;28;20299;-86
2022/09/25 02:50:29;;;;;;;;;;;;;;;10.61;61.49;101270.63;4998279;28;19943;-84
2022/09/25 02:53:06;;;;;;;;;;;;;;;10.51;61.32;101275.19;5000187;28;19952;-86
2022/09/25 02:55:43;;;;;;;;;;;;;;;10.33;61.77;101278.63;5004759;28;19967;-87
2022/09/25 02:58:12;;;;;;;;;;;;;;;10.27;61.73;101281.00;5014543;28;20250;-85
2022/09/25 03:00:38;;;;;;;;;;;;;;;10.28;61.22;101282.72;5005757;28;19917;-85
2022/09/25 03:03:05;;;;;;;;;;;;;;;10.19;61.02;101288.94;5006186;28;19921;-85
2022/09/25 03:05:31;;;;;;;;;;;;;;;10.16;61.35;101292.78;4993955;28;19917;-86
2022/09/25 03:10:45;;;;;;;;;;;;;;;10.11;61.25;101285.13;5018155;28;21302;-86
2022/09/25 03:13:17;;;;;;;;;;;;;;;10.01;61.30;101283.44;5001531;28;19924;-86
2022/09/25 03:15:45;;;;;;;;;;;;;;;10.18;60.95;101289.94;5008920;28;19918;-86
2022/09/25 03:18:13;;;;;;;;;;;;;;;10.19;60.64;101279.03;5010751;28;19923;-87
2022/09/25 03:20:39;;;;;;;;;;;;;;;10.22;60.70;101286.81;5002442;28;19917;-85
2022/09/25 03:23:04;;;;;;;;;;;;;;;10.21;60.74;101284.25;4991786;28;20369;-85
2022/09/25 03:25:30;;;;;;;;;;;;;;;10.20;60.67;101288.78;5012332;28;20039;-87
2022/09/25 03:27:55;;;;;;;;;;;;;;;10.20;60.71;101288.78;5014608;28;20357;-86
2022/09/25 03:30:20;;;;;;;;;;;;;;;10.19;60.45;101289.78;5014584;28;19975;-86
2022/09/25 03:32:47;;;;;;;;;;;;;;;10.27;60.32;101284.53;4992970;28;19921;-85
2022/09/25 03:35:14;;;;;;;;;;;;;;;10.24;60.21;101278.63;5007627;28;19924;-87
2022/09/25 03:37:41;;;;;;;;;;;;;;;10.33;60.21;101278.63;5011623;28;20305;-85
2022/09/25 03:40:06;;;;;;;;;;;;;;;10.41;60.17;101274.38;4991977;28;19917;-85
2022/09/25 03:42:32;;;;;;;;;;;;;;;10.47;60.17;101273.78;5011010;28;19917;-85
2022/09/25 03:44:57;;;;;;;;;;;;;;;10.52;60.12;101266.13;4995603;28;19921;-85
2022/09/25 03:47:22;;;;;;;;;;;;;;;10.54;60.17;101269.53;4997148;28;19917;-85
2022/09/25 03:49:49;;;;;;;;;;;;;;;10.56;60.28;101275.63;4995224;28;19983;-85
2022/09/25 03:52:14;;;;;;;;;;;;;;;10.59;60.25;101272.63;4992015;28;19918;-85
2022/09/25 03:54:40;;;;;;;;;;;;;;;10.60;60.36;101279.69;5012436;28;20254;-86
2022/09/25 03:57:05;;;;;;;;;;;;;;;10.61;60.19;101276.03;5001685;28;20376;-85
2022/09/25 03:59:30;;;;;;;;;;;;;;;10.62;61.02;101283.06;4999883;28;19918;-86
2022/09/25 04:01:57;;;;;;;;;;;;;;;10.59;61.61;101288.75;5010314;28;19918;-85
2022/09/25 04:04:22;;;;;;;;;;;;;;;10.53;62.05;101290.16;5021557;28;19914;-85
2022/09/25 04:06:48;;;;;;;;;;;;;;;10.52;61.49;101295.72;5017609;28;19920;-85
2022/09/25 04:09:13;;;;;;;;;;;;;;;10.38;60.87;101301.53;5000387;28;20262;-85
2022/09/25 04:11:41;;;;;;;;;;;;;;;10.26;60.90;101298.97;5023538;28;19921;-86
2022/09/25 04:14:07;;;;;;;;;;;;;;;10.26;61.15;101309.72;5021658;28;19914;-86
2022/09/25 04:16:32;;;;;;;;;;;;;;;10.28;60.87;101306.91;5011741;28;19933;-86
2022/09/25 04:18:57;;;;;;;;;;;;;;;10.31;60.55;101309.31;5014470;28;19924;-87
2022/09/25 04:21:23;;;;;;;;;;;;;;;10.33;60.47;101310.03;5014024;28;19944;-86
2022/09/25 04:26:32;;;;;;;;;;;;;;;10.46;60.48;101305.19;5010254;28;19924;-87
2022/09/25 04:29:00;;;;;;;;;;;;;;;10.52;60.54;101303.78;4991853;28;19917;-86
2022/09/25 04:31:26;;;;;;;;;;;;;;;10.46;60.77;101299.81;4996299;28;20305;-87
2022/09/25 04:33:52;;;;;;;;;;;;;;;10.55;60.68;101308.84;4993581;28;20316;-85
2022/09/25 04:36:18;;;;;;;;;;;;;;;10.59;61.06;101304.06;5006919;28;19921;-87
2022/09/25 04:38:43;;;;;;;;;;;;;;;10.66;61.16;101306.00;4992337;28;21356;-87
2022/09/25 04:41:08;;;;;;;;;;;;;;;10.72;61.61;101318.88;5015936;28;19968;-88
2022/09/25 04:43:34;;;;;;;;;;;;;;;10.77;62.52;101311.22;5024315;28;19910;-86
2022/09/25 04:46:02;;;;;;;;;;;;;;;10.84;63.24;101305.22;4991507;28;20008;-87
2022/09/25 04:48:28;;;;;;;;;;;;;;;10.88;63.97;101315.53;5008414;28;19925;-86
2022/09/25 04:50:54;;;;;;;;;;;;;;;10.98;65.01;101310.16;5015099;28;19922;-84
2022/09/25 04:53:21;;;;;;;;;;;;;;;11.05;65.70;101305.88;4993475;28;19917;-87
2022/09/25 04:55:47;;;;;;;;;;;;;;;11.14;66.32;101304.13;5009190;28;19968;-85
2022/09/25 04:58:12;;;;;;;;;;;;;;;11.29;67.14;101307.19;5010780;28;19967;-87
2022/09/25 05:00:39;;;;;;;;;;;;;;;11.37;67.69;101304.56;4994708;28;19922;-87
2022/09/25 05:03:05;;;;;;;;;;;;;;;11.39;66.21;101307.97;5008581;28;19918;-86
2022/09/25 05:05:32;;;;;;;;;;;;;;;11.52;65.21;101297.69;5011322;28;19937;-86
2022/09/25 05:07:58;;;;;;;;;;;;;;;11.62;64.70;101301.16;5011382;28;20418;-85
2022/09/25 05:10:26;;;;;;;;;;;;;;;11.71;63.96;101307.47;5011103;28;20049;-85
2022/09/25 05:13:01;;;;;;;;;;;;;;;11.60;62.86;101311.22;5022274;28;19918;-83
2022/09/25 05:15:27;;;;;;;;;;;;;;;11.68;61.71;101306.91;5000833;28;19922;-86
2022/09/25 05:18:17;;;;;;;;;;;;;;;11.74;60.81;101307.16;4978752;28;19925;-88
2022/09/25 05:20:42;;;;;;;;;;;;;;;11.76;59.91;101302.47;4991426;28;19940;-86
2022/09/25 05:23:08;;;;;;;;;;;;;;;11.68;59.25;101301.53;4988901;28;19948;-84
2022/09/25 05:25:34;;;;;;;;;;;;;;;11.59;59.03;101300.63;5000932;28;19929;-86
2022/09/25 05:28:00;;;;;;;;;;;;;;;11.59;59.52;101306.84;5008766;28;20756;-85
2022/09/25 05:30:27;;;;;;;;;;;;;;;11.62;59.64;101303.84;5006202;28;19968;-85
2022/09/25 05:32:53;;;;;;;;;;;;;;;11.60;60.19;101303.16;5006157;28;20400;-85
2022/09/25 05:35:19;;;;;;;;;;;;;;;11.75;60.14;101310.69;5002473;28;19943;-86
2022/09/25 05:37:44;;;;;;;;;;;;;;;12.78;58.24;101305.66;4995413;28;19929;-86
2022/09/25 05:40:10;;;;;;;;;;;;;;;15.74;51.86;101296.56;4989610;28;19968;-85
2022/09/25 05:42:35;;;;;;;;;;;;;;;18.12;44.70;101295.63;5010350;28;19921;-86
2022/09/25 05:45:00;;;;;;;;;;;;;;;20.21;40.13;101291.84;4989082;28;19945;-85
2022/09/25 05:47:26;;;;;;;;;;;;;;;22.01;36.38;101291.31;5004432;28;19918;-86
2022/09/25 05:49:52;;;;;;;;;;;;;;;23.34;33.32;101290.06;4990287;28;20348;-85
2022/09/25 05:52:18;;;;;;;;;;;;;;;24.52;30.83;101288.56;5007973;28;19924;-84
2022/09/25 05:54:43;;;;;;;;;;;;;;;25.74;29.44;101295.00;5012057;28;19921;-85
2022/09/25 05:57:09;;;;;;;;;;;;;;;26.59;27.65;101292.38;4992601;28;19921;-84
2022/09/25 05:59:34;;;;;;;;;;;;;;;26.97;26.84;101294.28;4991000;28;20400;-85
2022/09/25 06:02:01;;;;;;;;;;;;;;;27.30;26.53;101298.91;5008032;28;20015;-85
2022/09/25 06:04:28;;;;;;;;;;;;;;;27.68;25.61;101299.88;5012721;28;19936;-85
2022/09/25 06:06:53;;;;;;;;;;;;;;;27.99;25.02;101301.03;4987949;28;20012;-84
2022/09/25 06:09:19;;;;;;;;;;;;;;;28.38;25.12;101303.59;5014997;28;19953;-86
2022/09/25 06:11:47;;;;;;;;;;;;;;;28.21;24.69;101305.66;5002293;28;19958;-86
2022/09/25 06:14:13;;;;;;;;;;;;;;;28.20;24.60;101306.75;5011848;28;19917;-83
2022/09/25 06:16:38;;;;;;;;;;;;;;;27.96;24.48;101304.34;4990499;28;19952;-87
2022/09/25 06:19:04;;;;;;;;;;;;;;;27.97;24.53;101300.47;5011980;28;19921;-86
2022/09/25 06:21:31;;;;;;;;;;;;;;;27.77;25.17;101305.78;4997706;28;19921;-87
2022/09/25 06:23:57;;;;;;;;;;;;;;;27.76;25.68;101295.81;5012399;28;19956;-89
2022/09/25 06:26:24;;;;;;;;;;;;;;;27.48;25.86;101291.38;5002509;28;19913;-85
2022/09/25 06:28:51;;;;;;;;;;;;;;;27.45;26.29;101295.47;4995024;28;20393;-85
2022/09/25 06:31:16;;;;;;;;;;;;;;;27.43;26.38;101291.31;5002565;28;20032;-82
2022/09/25 06:33:42;;;;;;;;;;;;;;;27.10;26.50;101299.44;5013766;28;20029;-90
2022/09/25 06:36:08;;;;;;;;;;;;;;;26.92;27.59;101296.97;5011247;28;19917;-86
2022/09/25 06:38:35;;;;;;;;;;;;;;;26.74;27.82;101290.69;5009917;28;19925;-87
2022/09/25 06:41:01;;;;;;;;;;;;;;;26.76;27.86;101295.09;4983769;28;20020;-85
2022/09/25 06:43:26;;;;;;;;;;;;;;;26.85;27.93;101288.06;4995825;28;20004;-84
2022/09/25 06:45:57;;;;;;;;;;;;;;;26.82;28.19;101296.84;4990856;28;20130;-86
2022/09/25 06:48:22;;;;;;;;;;;;;;;26.85;28.73;101288.06;4986636;28;20454;-85
2022/09/25 06:50:50;;;;;;;;;;;;;;;26.45;28.85;101291.84;4996763;28;20008;-86
2022/09/25 06:53:17;;;;;;;;;;;;;;;25.97;29.56;101301.53;4994732;28;19918;-84
2022/09/25 06:55:45;;;;;;;;;;;;;;;26.44;29.22;101301.22;5010498;28;19940;-86
2022/09/25 06:58:14;;;;;;;;;;;;;;;26.65;28.43;101300.47;4995605;28;19983;-86
2022/09/25 07:00:40;;;;;;;;;;;;;;;26.64;28.43;101297.94;5002954;28;19917;-89
2022/09/25 07:05:51;;;;;;;;;;;;;;;26.55;28.86;101300.31;5008775;28;20498;-89
2022/09/25 07:08:19;;;;;;;;;;;;;;;26.71;28.22;101299.47;5011199;28;19921;-86
2022/09/25 07:10:48;;;;;;;;;;;;;;;26.88;28.19;101291.16;5016583;28;19914;-90
2022/09/25 07:13:13;;;;;;;;;;;;;;;26.94;27.58;101290.09;4993881;28;19917;-88
2022/09/25 07:15:44;;;;;;;;;;;;;;;27.15;27.21;101287.63;5005556;28;19932;-91
2022/09/25 07:18:10;;;;;;;;;;;;;;;27.28;27.59;101294.72;4993412;28;20459;-92
2022/09/25 07:20:36;;;;;;;;;;;;;;;27.76;26.58;101290.28;4997729;28;19924;-90
2022/09/25 07:23:02;;;;;;;;;;;;;;;28.33;25.89;101303.56;5011446;28;19914;-85
2022/09/25 07:25:28;;;;;;;;;;;;;;;28.58;25.47;101291.88;5012355;28;19921;-85
2022/09/25 07:27:54;;;;;;;;;;;;;;;29.16;24.60;101291.94;4999524;28;19920;-84
2022/09/25 07:30:20;;;;;;;;;;;;;;;29.46;24.73;101295.94;4990398;28;19941;-92
2022/09/25 07:32:46;;;;;;;;;;;;;;;29.75;24.19;101292.72;5007574;28;19923;-88
2022/09/25 07:35:12;;;;;;;;;;;;;;;30.07;23.81;101292.47;5014045;28;20377;-86
2022/09/25 07:37:40;;;;;;;;;;;;;;;30.66;22.93;101286.34;4999297;28;19917;-84
2022/09/25 07:40:06;;;;;;;;;;;;;;;30.99;21.98;101297.13;5011773;28;19928;-84
2022/09/25 07:42:31;;;;;;;;;;;;;;;31.09;22.24;101288.75;5014944;28;19913;-90
2022/09/25 07:44:57;;;;;;;;;;;;;;;30.79;23.04;101289.63;4997065;28;19918;-87
2022/09/25 07:47:23;;;;;;;;;;;;;;;30.42;23.42;101286.13;4998683;28;19918;-84
2022/09/25 07:49:48;;;;;;;;;;;;;;;30.02;22.69;101287.75;5011540;28;19975;-90
2022/09/25 07:52:13;;;;;;;;;;;;;;;31.11;21.88;101289.28;5010307;28;19961;-86
2022/09/25 07:54:39;;;;;;;;;;;;;;;32.96;20.40;101286.78;4992522;28;20337;-86
2022/09/25 07:57:04;;;;;;;;;;;;;;;33.02;19.93;101295.94;4993155;28;19925;-85
2022/09/25 07:59:29;;;;;;;;;;;;;;;32.46;20.75;101297.34;4987293;28;19913;-89
2022/09/25 08:01:56;;;;;;;;;;;;;;;32.70;20.58;101288.22;5008958;28;19967;-84
2022/09/25 08:04:22;;;;;;;;;;;;;;;33.08;20.33;101291.16;4997509;28;20346;-86
2022/09/25 08:06:47;;;;;;;;;;;;;;;33.37;20.19;101280.75;4982401;28;19925;-85
2022/09/25 08:09:13;;;;;;;;;;;;;;;32.57;20.69;101287.78;4982402;28;19917;-86
2022/09/25 08:11:40;;;;;;;;;;;;;;;31.68;21.66;101284.28;5015895;28;19918;-87
2022/09/25 08:14:09;;;;;;;;;;;;;;;30.83;23.61;101286.00;5009157;28;19917;-89
2022/09/25 08:19:10;;;;;;;;;;;;;;;29.25;25.74;101284.78;5130451;23;19920;-89
2022/09/25 08:21:35;;;;;;;;;;;;;;;29.04;26.02;101271.94;5034414;28;20317;-90
2022/09/25 08:24:01;;;;;;;;;;;;;;;28.86;26.55;101281.53;5041452;28;19916;-90
2022/09/25 08:26:28;;;;;;;;;;;;;;;28.93;26.35;101282.13;5033510;28;19921;-92
2022/09/25 08:28:59;;;;;;;;;;;;;;;29.19;26.42;101280.31;5023818;28;19956;-92
2022/09/25 08:31:31;;;;;;;;;;;;;;;29.22;26.18;101278.94;5048081;28;20023;-91
2022/09/25 08:33:58;;;;;;;;;;;;;;;28.99;26.99;101274.69;5026273;28;20345;-88
2022/09/25 08:36:23;;;;;;;;;;;;;;;29.91;25.45;101280.53;5050203;28;19923;-85
2022/09/25 08:38:49;;;;;;;;;;;;;;;31.24;24.71;101274.78;5034065;28;20400;-87
2022/09/25 08:41:18;;;;;;;;;;;;;;;31.05;24.81;101271.00;5031935;28;19955;-86
2022/09/25 08:44:05;;;;;;;;;;;;;;;30.45;25.65;101266.13;5047699;28;19925;-90
2022/09/25 08:49:29;;;;;;;;;;;;;;;33.16;22.28;101263.47;5024988;28;19963;-88
2022/09/25 08:51:57;;;;;;;;;;;;;;;32.18;23.09;101271.16;5046260;28;19990;-86
2022/09/25 08:54:26;;;;;;;;;;;;;;;32.77;22.43;101261.69;5008170;28;19956;-85
2022/09/25 08:56:52;;;;;;;;;;;;;;;33.95;21.37;101262.03;5045835;28;19924;-87
2022/09/25 08:59:27;;;;;;;;;;;;;;;34.65;20.59;101258.34;5008883;28;19921;-91
2022/09/25 09:02:00;;;;;;;;;;;;;;;36.10;19.44;101263.25;5026410;28;19927;-87
2022/09/25 09:04:27;;;;;;;;;;;;;;;36.84;18.81;101259.88;5029289;28;19967;-85
2022/09/25 09:06:56;;;;;;;;;;;;;;;37.11;18.66;101257.97;5059469;28;19920;-86
2022/09/25 09:09:36;;;;;;;;;;;;;;;38.20;16.97;101248.59;5039055;28;19920;-88
2022/09/25 09:12:03;;;;;;;;;;;;;;;39.65;15.96;101245.69;5040342;28;19968;-89
2022/09/25 09:14:29;;;;;;;;;;;;;;;39.36;16.06;101244.63;5046695;28;20454;-89
2022/09/25 09:17:00;;;;;;;;;;;;;;;39.63;16.56;101240.41;5032242;28;20004;-87
2022/09/25 09:19:45;;;;;;;;;;;;;;;38.74;16.63;101237.69;5049798;28;19920;-95
2022/09/25 09:22:11;;;;;;;;;;;;;;;37.14;17.56;101241.34;5022783;28;19912;-91
2022/09/25 09:24:55;;;;;;;;;;;;;;;38.17;17.45;101240.88;5053329;28;20011;-90
2022/09/25 09:27:27;;;;;;;;;;;;;;;37.83;17.33;101241.72;5059374;28;20006;-88
2022/09/25 09:30:23;;;;;;;;;;;;;;;38.60;16.11;101235.09;5032542;28;19917;-92
2022/09/25 09:33:01;;;;;;;;;;;;;;;38.84;16.34;101233.66;5055075;28;19927;-89
2022/09/25 09:35:32;;;;;;;;;;;;;;;38.59;16.69;101230.66;5045801;28;19921;-85
2022/09/25 09:38:08;;;;;;;;;;;;;;;39.24;16.42;101231.28;5055326;28;19921;-85
2022/09/25 09:40:48;;;;;;;;;;;;;;;38.51;17.18;101225.88;5040029;28;19938;-88
2022/09/25 09:43:41;;;;;;;;;;;;;;;38.29;17.65;101228.94;5027985;28;20344;-87
2022/09/25 09:46:25;;;;;;;;;;;;;;;38.23;18.39;101217.88;5045222;28;20035;-87
2022/09/25 09:48:50;;;;;;;;;;;;;;;37.96;18.78;101210.66;5050711;28;19924;-92
2022/09/25 09:51:45;;;;;;;;;;;;;;;38.51;18.70;101213.84;5033401;28;19921;-91
2022/09/25 09:54:16;;;;;;;;;;;;;;;36.87;20.82;101205.97;5033015;28;20415;-90
2022/09/25 09:56:43;;;;;;;;;;;;;;;37.92;20.14;101206.88;5044542;28;19923;-90
2022/09/25 09:59:19;;;;;;;;;;;;;;;37.95;20.30;101211.81;5032521;28;19921;-88
2022/09/25 10:01:48;;;;;;;;;;;;;;;39.60;18.53;101198.09;5038431;28;19920;-87
2022/09/25 10:04:26;;;;;;;;;;;;;;;39.42;18.45;101203.03;5037324;28;20309;-87
2022/09/25 10:06:57;;;;;;;;;;;;;;;39.63;18.52;101200.19;5025349;28;19938;-85
2022/09/25 10:09:24;;;;;;;;;;;;;;;39.51;18.49;101195.34;5039103;28;20007;-85
2022/09/25 10:11:58;;;;;;;;;;;;;;;41.01;16.92;101188.44;5057161;28;19923;-88
2022/09/25 10:14:25;;;;;;;;;;;;;;;41.69;16.03;101190.47;5042288;28;19925;-85
2022/09/25 10:16:51;;;;;;;;;;;;;;;41.85;16.50;101178.41;5038134;28;19923;-89
2022/09/25 10:19:27;;;;;;;;;;;;;;;40.06;17.04;101185.72;5019080;28;19920;-91
2022/09/25 10:21:54;;;;;;;;;;;;;;;40.65;16.60;101175.19;5015608;28;19927;-88
2022/09/25 10:24:52;;;;;;;;;;;;;;;38.59;17.65;101168.84;5008248;28;20358;-87
2022/09/25 10:27:19;;;;;;;;;;;;;;;37.23;19.12;101153.63;4978163;28;20430;-88
2022/09/25 10:29:48;;;;;;;;;;;;;;;35.67;20.61;101165.88;5018436;28;19956;-85
2022/09/25 10:32:15;;;;;;;;;;;;;;;34.36;21.45;101155.34;5036771;28;19921;-85
2022/09/25 10:34:42;;;;;;;;;;;;;;;34.23;22.13;101149.44;5017004;28;19921;-87
2022/09/25 10:37:19;;;;;;;;;;;;;;;33.28;23.23;101143.22;5033077;28;19912;-86
2022/09/25 10:40:01;;;;;;;;;;;;;;;32.24;23.27;101152.31;4999855;28;19971;-89
2022/09/25 10:42:39;;;;;;;;;;;;;;;31.00;24.78;101162.72;5021586;28;19971;-88
2022/09/25 10:45:25;;;;;;;;;;;;;;;30.15;24.93;101153.28;5003550;28;19956;-91
2022/09/25 10:50:35;;;;;;;;;;;;;;;28.46;26.68;101144.66;5022248;28;19924;-86
2022/09/25 10:53:06;;;;;;;;;;;;;;;27.93;27.40;101141.84;5010086;28;19920;-86
2022/09/25 10:56:00;;;;;;;;;;;;;;;;;;;;;
2022/09/25 10:58:35;;;;;;;;;;;;;;;26.26;29.51;101146.03;5013915;28;19925;-85
2022/09/25 11:01:02;;;;;;;;;;;;;;;26.76;29.19;101140.63;5014548;28;19940;-87
2022/09/25 11:03:54;;;;;;;;;;;;;;;27.79;28.00;101130.38;4999596;28;19924;-86
2022/09/25 11:06:21;;;;;;;;;;;;;;;27.58;27.83;101129.38;5009084;28;19920;-87
2022/09/25 11:08:50;;;;;;;;;;;;;;;28.74;25.63;101129.56;5016273;28;19918;-87
2022/09/25 11:11:19;;;;;;;;;;;;;;;29.29;25.07;101118.94;5009938;28;19920;-86
2022/09/25 11:13:45;;;;;;;;;;;;;;;30.85;23.08;101125.63;5003216;28;19929;-86
2022/09/25 11:16:11;;;;;;;;;;;;;;;30.60;22.18;101122.94;5010786;28;19921;-86
2022/09/25 11:18:37;;;;;;;;;;;;;;;30.26;22.74;101115.31;5009606;28;20309;-87
2022/09/25 11:21:03;;;;;;;;;;;;;;;29.18;23.44;101115.31;5003826;28;20304;-87
2022/09/25 11:23:58;;;;;;;;;;;;;;;28.18;25.93;101132.03;5043319;28;19908;-85
2022/09/25 11:26:48;;;;;;;;;;;;;;;27.69;27.23;101113.72;5029806;28;19921;-88
2022/09/25 11:29:16;;;;;;;;;;;;;;;27.32;27.44;101113.66;5032837;28;19925;-87
2022/09/25 11:31:42;;;;;;;;;;;;;;;27.40;28.27;101104.94;5034322;28;19963;-86
2022/09/25 11:34:23;;;;;;;;;;;;;;;27.82;27.83;101112.44;5020719;28;19912;-87
2022/09/25 11:36:51;;;;;;;;;;;;;;;27.42;28.61;101110.16;5009724;28;19917;-92
2022/09/25 11:42:13;;;;;;;;;;;;;;;27.87;27.33;101111.69;5041312;28;19937;-88
2022/09/25 11:44:44;;;;;;;;;;;;;;;26.77;29.14;101120.25;5030581;28;19974;-87
2022/09/25 11:47:24;;;;;;;;;;;;;;;26.60;29.94;101107.38;5044049;28;19939;-89
2022/09/25 11:49:50;;;;;;;;;;;;;;;26.59;30.65;101104.88;5049477;28;19947;-89
2022/09/25 11:52:16;;;;;;;;;;;;;;;25.86;32.24;101105.78;5025907;28;19977;-87
2022/09/25 11:54:42;;;;;;;;;;;;;;;25.26;33.58;101106.38;5042899;28;19917;-89
2022/09/25 11:57:26;;;;;;;;;;;;;;;24.90;34.28;101100.22;5051303;28;19913;-89
2022/09/25 12:00:06;;;;;;;;;;;;;;;24.30;35.79;101111.56;5047148;28;20384;-89
2022/09/25 12:02:51;;;;;;;;;;;;;;;23.56;36.96;101095.56;5050957;28;19916;-84
2022/09/25 12:05:16;;;;;;;;;;;;;;;23.67;37.46;101089.28;5051745;28;19963;-87
2022/09/25 12:08:00;;;;;;;;;;;;;;;23.64;38.66;101095.22;5033427;28;19963;-87
2022/09/25 12:10:38;;;;;;;;;;;;;;;23.10;39.34;101097.13;5051413;28;19912;-88
2022/09/25 12:13:30;;;;;;;;;;;;;;;23.32;39.65;101100.16;5018104;28;20420;-87
2022/09/25 12:16:02;;;;;;;;;;;;;;;22.82;40.94;101100.44;5037438;28;19960;-89
2022/09/25 12:18:38;;;;;;;;;;;;;;;22.88;41.44;101100.38;5048717;28;19923;-90
2022/09/25 12:21:06;;;;;;;;;;;;;;;22.54;41.06;101099.94;5046996;28;20297;-87
2022/09/25 12:23:56;;;;;;;;;;;;;;;22.60;41.50;101097.38;5028918;28;19917;-88
2022/09/25 12:26:22;;;;;;;;;;;;;;;22.96;40.84;101080.81;5052776;28;19917;-86
2022/09/25 12:28:51;;;;;;;;;;;;;;;22.73;39.88;101080.75;5039133;28;19949;-89
2022/09/25 12:31:45;;;;;;;;;;;;;;;22.61;41.32;101082.59;5038792;28;19928;-89
2022/09/25 12:34:40;;;;;;;;;;;;;;;22.38;41.90;101089.59;5029677;28;19959;-86
2022/09/25 12:37:21;;;;;;;;;;;;;;;22.27;42.15;101082.16;5030819;28;19921;-83
2022/09/25 12:39:49;;;;;;;;;;;;;;;22.58;41.61;101080.31;5052071;28;19921;-88
2022/09/25 12:42:23;;;;;;;;;;;;;;;22.39;42.71;101079.50;5050519;28;20003;-85
2022/09/25 12:44:53;;;;;;;;;;;;;;;22.12;43.33;101093.44;5047454;28;20376;-88
2022/09/25 12:47:22;;;;;;;;;;;;;;;21.65;45.00;101072.00;5025259;28;19933;-84
2022/09/25 12:49:50;;;;;;;;;;;;;;;21.84;45.23;101080.25;5049067;28;19952;-86
2022/09/25 12:52:36;;;;;;;;;;;;;;;21.74;45.77;101082.69;5018866;28;19963;-86
2022/09/25 12:55:05;;;;;;;;;;;;;;;21.89;46.18;101074.94;5047271;28;19982;-84
2022/09/25 12:57:37;;;;;;;;;;;;;;;21.73;47.11;101070.91;5050597;28;19960;-84
2022/09/25 13:00:08;;;;;;;;;;;;;;;21.61;47.74;101073.53;5050008;28;19935;-85
2022/09/25 13:02:34;;;;;;;;;;;;;;;21.38;48.58;101059.63;5028107;28;20324;-86
2022/09/25 13:05:11;;;;;;;;;;;;;;;21.22;48.79;101059.09;5037399;28;19924;-85
2022/09/25 13:07:40;;;;;;;;;;;;;;;21.42;48.88;101064.44;5044103;28;20004;-85
2022/09/25 13:10:35;;;;;;;;;;;;;;;21.29;48.73;101056.31;5035327;28;19912;-85
2022/09/25 13:13:01;;;;;;;;;;;;;;;21.00;49.50;101052.28;4988542;28;20000;-85